East Warners (211) Station Data

Red Flag Warning: No
Fire Weather Zone: 258
SDGE Region: Ramona
Lat/Lon: 33.227/-116.621

Observations

Time Wind Speed/Gust Temp(F) RH Fuel Moist Fuel Temp(F) Dewpt(F) Tmax(F) Tmin(F) Accum Precip 10-min Precip SL Press(mb)
4/26 2:40am 122 3 G 6 52° 64% - - 40° 53.7° 46.5° - - -
4/26 2:30am 123 2 G 4 50° 70% - - 41° 52.1° 46.5° - - -
4/26 2:20am 103 3 G 6 51° 70% - - 42° 52.1° 46.5° - - -
4/26 2:10am 96 4 G 5 49° 78% - - 43° 51.6° 46.5° - - -
4/26 2:00am 107 4 G 6 48° 86% - - 44° 51.6° 46.5° - - -
4/26 1:50am 100 4 G 6 49° 85% - - 45° 51.6° 46.7° - - -
4/26 1:40am 100 5 G 6 50° 82% - - 45° 51.6° 46.7° - - -
4/26 1:30am 108 5 G 6 50° 90% - - 47° 51.5° 46.7° - - -
4/26 1:20am 90 4 G 6 49° 89% - - 46° 51.5° 46.7° - - -
4/26 1:10am 110 3 G 4 50° 95% - - 48° 51.5° 46.7° - - -
4/26 1:00am 86 4 G 6 48° 96% - - 47° 51.5° 46.7° - - -
4/26 12:50am 106 2 G 5 51° 88% - - 47° 51.5° 49° - - -
4/26 12:40am 98 2 G 4 51° 92% - - 48° 51.4° 49.7° - - -
4/26 12:30am 99 3 G 4 50° 95% - - 49° 51.4° 49.7° - - -
4/26 12:20am 90 3 G 4 50° 94% - - 48° 51.4° 49.7° - - -
4/26 12:10am 89 2 G 3 51° 92% - - 49° 51.4° 50.1° - - -
4/26 12:00am 105 3 G 4 51° 95% - - 49° 63.5° 48.1° - - -
4/25 11:50pm 103 3 G 4 50° 98% - - 50° 63.5° 48.1° - - -
4/25 11:40pm 96 4 G 5 50° 100% - - 50° 63.5° 48.1° - - -
4/25 11:30pm 108 3 G 4 49° 100% - - 49° 63.5° 48.1° - - -
4/25 11:20pm 72 2 G 4 50° 100% - - 50° 63.5° 48.1° - - -
4/25 11:10pm 105 2 G 4 50° 100% - - 49° 63.5° 48.1° - - -
4/25 11:00pm 102 2 G 4 50° 100% - - 50° 63.5° 48.1° - - -
4/25 10:50pm 267 2 G 4 50° 100% - - 50° 63.5° 48.1° - - -
4/25 10:40pm 258 2 G 3 50° 100% - - 50° 63.5° 48.1° - - -
4/25 10:30pm 232 1 G 2 50° 100% - - 50° 63.5° 48.1° - - -
4/25 10:20pm 233 2 G 3 50° 100% - - 50° 63.5° 48.1° - - -
4/25 10:10pm 259 1 G 2 50° 100% - - 50° 63.5° 48.1° - - -
4/25 10:00pm 240 1 G 2 50° 100% - - 50° 63.5° 48.1° - - -
4/25 9:50pm 272 1 G 3 50° 100% - - 50° 63.5° 48.1° - - -
4/25 9:40pm 261 2 G 4 50° 100% - - 50° 63.5° 48.1° - - -
4/25 9:30pm 254 2 G 4 50° 100% - - 50° 63.5° 48.1° - - -
4/25 9:20pm 284 2 G 4 50° 100% - - 50° 63.5° 48.1° - - -
4/25 9:10pm 302 4 G 6 51° 96% - - 50° 63.5° 48.1° - - -
4/25 9:00pm 292 5 G 7 51° 94% - - 50° 63.5° 48.1° - - -
4/25 8:50pm 309 5 G 7 51° 94% - - 50° 63.5° 48.1° - - -
4/25 8:40pm 286 7 G 14 54° 82% - - 48° 63.5° 48.1° - - -
4/25 8:30pm 253 10 G 16 55° 79% - - 48° 63.5° 48.1° - - -
4/25 8:20pm 258 9 G 16 54° 79% - - 48° 63.5° 48.1° - - -
4/25 8:10pm 263 10 G 15 55° 79% - - 48° 63.5° 48.1° - - -
4/25 8:00pm 276 10 G 15 55° 78% - - 48° 63.5° 48.1° - - -
4/25 7:50pm 256 12 G 20 55° 76% - - 48° 63.5° 48.1° - - -
4/25 7:40pm 248 12 G 19 55° 76% - - 48° 63.5° 48.1° - - -
4/25 7:30pm 240 13 G 21 56° 75% - - 48° 63.5° 48.1° - - -
4/25 7:20pm 232 13 G 20 55° 78% - - 49° 63.5° 48.1° - - -
4/25 7:10pm 234 14 G 21 56° 79% - - 49° 63.5° 48.1° - - -
4/25 7:00pm 243 14 G 19 56° 78% - - 49° 63.5° 48.1° - - -
4/25 6:50pm 240 14 G 23 56° 77% - - 49° 63.5° 48.1° - - -
4/25 6:40pm 246 15 G 20 57° 76% - - 49° 63.5° 48.1° - - -
4/25 6:30pm 256 14 G 21 57° 75% - - 49° 63.5° 48.1° - - -
4/25 6:20pm 245 14 G 20 57° 73% - - 49° 63.5° 48.1° - - -
4/25 6:10pm 245 12 G 17 58° 71% - - 48° 63.5° 48.1° - - -
4/25 6:00pm 240 13 G 21 57° 73% - - 49° 63.5° 48.1° - - -
4/25 5:50pm 255 15 G 21 57° 73% - - 49° 63.5° 48.1° - - -
4/25 5:40pm 254 16 G 23 58° 70% - - 48° 63.5° 48.1° - - -
4/25 5:30pm 252 17 G 23 58° 69% - - 48° 63.5° 48.1° - - -
4/25 5:20pm 257 18 G 23 58° 68% - - 48° 63.5° 48.1° - - -
4/25 5:10pm 251 16 G 21 59° 67% - - 48° 63.5° 48.1° - - -
4/25 5:00pm 246 15 G 22 59° 66% - - 48° 63.5° 48.1° - - -
4/25 4:50pm 253 17 G 23 59° 66% - - 48° 63.5° 48.1° - - -
4/25 4:40pm 256 16 G 22 60° 64% - - 47° 63.5° 48.1° - - -
4/25 4:30pm 249 16 G 23 60° 60% - - 47° 63.5° 48.1° - - -
4/25 4:20pm 248 16 G 23 61° 59% - - 46° 63.5° 48.1° - - -
4/25 4:10pm 249 17 G 26 60° 61% - - 47° 63.5° 48.1° - - -
4/25 4:00pm 249 17 G 25 60° 62% - - 47° 63.5° 48.1° - - -
4/25 3:50pm 241 21 G 30 60° 62% - - 47° 63.5° 48.1° - - -
4/25 3:40pm 243 19 G 26 59° 65% - - 48° 63.5° 48.1° - - -
4/25 3:30pm 253 20 G 26 59° 65% - - 47° 63.5° 48.1° - - -
4/25 3:20pm 259 16 G 24 60° 64% - - 48° 63.5° 48.1° - - -
4/25 3:10pm 263 17 G 25 60° 63% - - 48° 63.5° 48.1° - - -
4/25 3:00pm 245 18 G 26 59° 66% - - 48° 63.5° 48.1° - - -
4/25 2:50pm 242 17 G 25 60° 63% - - 48° 63.5° 48.1° - - -
4/25 2:40pm 249 16 G 22 61° 59% - - 46° 63.5° 48.1° - - -
4/25 2:30pm 248 18 G 24 61° 59% - - 46° 63.5° 48.1° - - -
4/25 2:20pm 260 15 G 23 62° 53% - - 45° 63.5° 48.1° - - -
4/25 2:10pm 256 15 G 25 62° 51% - - 44° 63.5° 48.1° - - -
4/25 2:00pm 248 19 G 27 61° 52% - - 43° 62.2° 48.1° - - -
4/25 1:50pm 268 15 G 23 61° 53% - - 44° 62.1° 48.1° - - -
4/25 1:40pm 257 17 G 25 61° 55% - - 45° 61.9° 48.1° - - -
4/25 1:30pm 257 17 G 24 60° 57% - - 45° 61.9° 48.1° - - -
4/25 1:20pm 259 19 G 27 60° 57% - - 44° 61.7° 48.1° - - -
4/25 1:10pm 253 18 G 24 60° 56% - - 44° 61.7° 48.1° - - -
4/25 1:00pm 259 16 G 24 60° 56% - - 45° 61.7° 48.1° - - -
4/25 12:50pm 252 21 G 27 59° 57% - - 44° 60.4° 48.1° - - -
4/25 12:40pm 257 20 G 29 59° 58% - - 44° 60.4° 48.1° - - -
4/25 12:30pm 265 16 G 24 59° 56% - - 44° 60.4° 48.1° - - -
4/25 12:20pm 255 18 G 26 59° 58% - - 44° 60.4° 48.1° - - -
4/25 12:10pm 257 16 G 24 58° 57% - - 43° 58.9° 48.1° - - -
4/25 12:00pm 263 15 G 23 58° 59% - - 44° 58.9° 48.1° - - -
4/25 11:50am 263 15 G 25 58° 59% - - 44° 58.4° 48.1° - - -
4/25 11:40am 256 15 G 21 57° 60% - - 43° 58.1° 48.1° - - -
4/25 11:30am 250 17 G 25 57° 62% - - 44° 57.8° 48.1° - - -
4/25 11:20am 253 18 G 26 57° 62% - - 44° 57.4° 48.1° - - -
4/25 11:10am 256 18 G 24 56° 64% - - 44° 56.8° 48.1° - - -
4/25 11:00am 264 16 G 26 56° 64% - - 44° 56.8° 48.1° - - -
4/25 10:50am 257 18 G 24 55° 65% - - 44° 56.5° 48.1° - - -
4/25 10:40am 259 17 G 25 56° 64% - - 44° 56.5° 48.1° - - -
4/25 10:30am 262 17 G 27 55° 66% - - 44° 56.5° 48.1° - - -
4/25 10:20am 259 19 G 28 55° 67% - - 44° 55.6° 48.1° - - -
4/25 10:10am 261 17 G 25 54° 69% - - 44° 54.8° 48.1° - - -
4/25 10:00am 273 15 G 25 53° 71% - - 44° 54.3° 48.1° - - -
4/25 9:50am 279 15 G 21 52° 73% - - 44° 54.3° 48.1° - - -
4/25 9:40am 269 15 G 21 53° 71% - - 44° 54.3° 48.1° - - -
4/25 9:30am 266 15 G 25 53° 73% - - 44° 53.5° 48.1° - - -
4/25 9:20am 269 15 G 23 52° 75% - - 45° 53.1° 48.1° - - -
4/25 9:10am 270 17 G 28 52° 76% - - 45° 52.6° 48.1° - - -
4/25 9:00am 266 18 G 27 52° 76% - - 45° 52.6° 48.1° - - -
4/25 8:50am 264 18 G 27 51° 79% - - 45° 51.7° 48.1° - - -
4/25 8:40am 271 16 G 24 51° 81% - - 45° 51.4° 48.1° - - -
4/25 8:30am 270 16 G 23 50° 83% - - 46° 51.1° 48.1° - - -
4/25 8:20am 276 14 G 21 50° 86% - - 46° 50.6° 48.1° - - -
4/25 8:10am 275 14 G 21 50° 88% - - 47° 50.4° 48.1° - - -
4/25 8:00am 268 15 G 26 50° 88% - - 46° 50.2° 48.1° - - -
4/25 7:50am 272 15 G 24 49° 93% - - 47° 50° 48.1° - - -
4/25 7:40am 267 15 G 24 49° 95% - - 48° 49.6° 48.1° - - -
4/25 7:30am 266 14 G 20 49° 96% - - 48° 49.6° 48.1° - - -
4/25 7:20am 265 15 G 23 49° 97% - - 48° 49.6° 48.1° - - -
4/25 7:10am 263 16 G 23 49° 96% - - 48° 49.6° 48.1° - - -
4/25 7:00am 256 21 G 28 49° 96% - - 48° 49.6° 48.1° - - -
4/25 6:50am 252 22 G 30 49° 96% - - 48° 49.6° 48.1° - - -
4/25 6:40am 253 22 G 31 49° 95% - - 47° 49.6° 48.1° - - -
4/25 6:30am 252 23 G 30 49° 95% - - 47° 49.6° 48.1° - - -
4/25 6:20am 253 22 G 30 49° 95% - - 47° 49.6° 48.1° - - -
4/25 6:10am 254 21 G 29 49° 96% - - 47° 49.6° 48.1° - - -
4/25 6:00am 253 21 G 32 49° 96% - - 48° 49.6° 48.1° - - -
4/25 5:50am 251 21 G 30 49° 95% - - 47° 49.6° 48.1° - - -
4/25 5:40am 249 24 G 29 49° 94% - - 47° 49.6° 48.1° - - -
4/25 5:30am 254 19 G 27 49° 96% - - 48° 49.6° 48.1° - - -
4/25 5:20am 252 19 G 27 49° 97% - - 48° 49.6° 48.1° - - -
4/25 5:10am 255 17 G 25 49° 97% - - 48° 49.6° 48.1° - - -
4/25 5:00am 254 18 G 27 49° 99% - - 49° 49.6° 48.1° - - -
4/25 4:50am 258 17 G 24 49° 100% - - 49° 49.6° 48.1° - - -
4/25 4:40am 259 16 G 22 49° 100% - - 49° 49.6° 48.1° - - -
4/25 4:30am 259 17 G 25 49° 100% - - 49° 49.6° 48.1° - - -
4/25 4:20am 257 18 G 25 49° 100% - - 49° 49.6° 48.1° - - -
4/25 4:10am 256 19 G 26 49° 100% - - 48° 49.6° 48.1° - - -
4/25 4:00am 262 17 G 24 49° 99% - - 48° 49.6° 48.1° - - -
4/25 3:50am 256 21 G 30 49° 98% - - 48° 49.6° 48.1° - - -
4/25 3:40am 258 20 G 28 49° 98% - - 48° 49.6° 48.1° - - -
4/25 3:30am 254 22 G 31 49° 97% - - 48° 49.6° 48.1° - - -
4/25 3:20am 253 23 G 34 49° 99% - - 49° 49.6° 48.1° - - -
4/25 3:10am 254 22 G 30 49° 100% - - 49° 49.6° 48.1° - - -
4/25 3:00am 255 23 G 30 49° 100% - - 49° 49.6° 48.1° - - -
4/25 2:50am 256 22 G 33 49° 98% - - 49° 49.6° 48.1° - - -
4/25 2:40am 252 24 G 34 49° 100% - - 49° 49.5° 48.1° - - -
4/25 2:30am 249 23 G 31 49° 100% - - 49° 49.5° 48.1° - - -
4/25 2:20am 251 24 G 31 49° 100% - - 49° 49.5° 48.1° - - -
4/25 2:10am 252 22 G 29 49° 100% - - 49° 49.5° 48.1° - - -
4/25 2:00am 250 21 G 28 49° 100% - - 49° 49.5° 48.1° - - -
4/25 1:50am 250 23 G 31 49° 100% - - 49° 49.5° 48.1° - - -
4/25 1:40am 251 23 G 29 49° 100% - - 49° 49.4° 48.1° - - -
4/25 1:30am 250 22 G 32 49° 100% - - 49° 49.4° 48.1° - - -
4/25 1:20am 251 22 G 29 49° 100% - - 49° 49.4° 48.1° - - -
4/25 1:10am 250 21 G 29 49° 100% - - 49° 49.4° 48.1° - - -
4/25 1:00am 248 22 G 29 49° 100% - - 49° 49.4° 48.1° - - -
4/25 12:50am 251 21 G 28 49° 100% - - 49° 49.4° 48.1° - - -
4/25 12:40am 252 17 G 25 49° 100% - - 49° 49.4° 48.1° - - -
4/25 12:30am 250 18 G 25 49° 100% - - 49° 49.3° 48.1° - - -
4/25 12:20am 246 18 G 25 49° 100% - - 49° 49.3° 48.2° - - -
4/25 12:10am 239 20 G 28 49° 100% - - 49° 49.3° 48.3° - - -
4/25 12:00am 236 21 G 27 49° 100% - - 49° 65.8° 40.5° - - -
4/24 11:50pm 237 19 G 28 49° 100% - - 49° 65.8° 40.5° - - -
4/24 11:40pm 242 22 G 32 49° 100% - - 49° 65.8° 40.5° - - -
4/24 11:30pm 251 27 G 36 50° 100% - - 50° 65.8° 40.5° - - -
4/24 11:20pm 250 27 G 36 49° 100% - - 49° 65.8° 40.5° - - -
4/24 11:10pm 247 23 G 33 50° 99% - - 49° 65.8° 40.5° - - -
4/24 11:00pm 253 22 G 31 50° 95% - - 48° 65.8° 40.5° - - -
4/24 10:50pm 250 19 G 27 50° 96% - - 49° 65.8° 40.5° - - -
4/24 10:40pm 250 20 G 27 50° 99% - - 50° 65.8° 40.5° - - -
4/24 10:30pm 249 16 G 25 50° 100% - - 50° 65.8° 40.5° - - -
4/24 10:20pm 241 18 G 25 50° 96% - - 49° 65.8° 40.5° - - -
4/24 10:10pm 240 15 G 25 50° 93% - - 48° 65.8° 40.5° - - -
4/24 10:00pm 234 17 G 24 50° 92% - - 48° 65.8° 40.5° - - -
4/24 9:50pm 233 17 G 24 51° 91% - - 48° 65.8° 40.5° - - -
4/24 9:40pm 234 17 G 24 51° 90% - - 48° 65.8° 40.5° - - -
4/24 9:30pm 232 17 G 23 51° 90% - - 48° 65.8° 40.5° - - -
4/24 9:20pm 232 18 G 27 51° 89% - - 48° 65.8° 40.5° - - -
4/24 9:10pm 227 19 G 27 51° 88% - - 48° 65.8° 40.5° - - -
4/24 9:00pm 230 18 G 25 51° 89% - - 48° 65.8° 40.5° - - -
4/24 8:50pm 234 17 G 24 51° 88% - - 48° 65.8° 40.5° - - -
4/24 8:40pm 234 18 G 26 51° 87% - - 47° 65.8° 40.5° - - -
4/24 8:30pm 231 19 G 28 52° 87% - - 48° 65.8° 40.5° - - -
4/24 8:20pm 231 20 G 32 52° 86% - - 48° 65.8° 40.5° - - -
4/24 8:10pm 225 21 G 29 52° 84% - - 48° 65.8° 40.5° - - -
4/24 8:00pm 228 20 G 29 52° 86% - - 48° 65.8° 40.5° - - -
4/24 7:50pm 229 18 G 26 52° 87% - - 49° 65.8° 40.5° - - -
4/24 7:40pm 229 18 G 28 53° 86% - - 49° 65.8° 40.5° - - -
4/24 7:30pm 235 19 G 25 53° 85% - - 49° 65.8° 40.5° - - -
4/24 7:20pm 235 18 G 27 53° 84% - - 49° 65.8° 40.5° - - -
4/24 7:10pm 235 19 G 27 54° 84% - - 49° 65.8° 40.5° - - -
4/24 7:00pm 236 19 G 30 54° 84% - - 49° 65.8° 40.5° - - -
4/24 6:50pm 239 19 G 30 54° 81% - - 49° 65.8° 40.5° - - -
4/24 6:40pm 240 19 G 27 55° 80% - - 49° 65.8° 40.5° - - -
4/24 6:30pm 239 20 G 29 55° 77% - - 48° 65.8° 40.5° - - -
4/24 6:20pm 241 19 G 26 56° 73% - - 48° 65.8° 40.5° - - -
4/24 6:10pm 245 18 G 28 57° 71% - - 48° 65.8° 40.5° - - -
4/24 6:00pm 245 19 G 30 57° 70% - - 48° 65.8° 40.5° - - -